createdAt,value
2023-03-27T00:00:42.646Z,100
2023-03-27T00:03:44.312Z,100
2023-03-27T00:06:33.851Z,100
2023-03-27T00:09:21.839Z,100
2023-03-27T00:12:09.778Z,100
2023-03-27T00:14:57.230Z,100
2023-03-27T00:17:45.625Z,100
2023-03-27T00:20:35.080Z,100
2023-03-27T00:23:23.799Z,100
2023-03-27T00:26:14.084Z,100
2023-03-27T00:29:01.680Z,100
2023-03-27T00:31:49.413Z,100
2023-03-27T00:34:42.485Z,100
2023-03-27T00:37:30.016Z,100
2023-03-27T00:40:17.596Z,100
2023-03-27T00:43:06.402Z,100
2023-03-27T00:46:12.522Z,100
2023-03-27T00:49:12.909Z,100
2023-03-27T00:52:01.374Z,100
2023-03-27T00:54:51.946Z,100
2023-03-27T00:57:41.525Z,100
2023-03-27T01:00:34.608Z,100
2023-03-27T01:03:22.678Z,100
2023-03-27T01:06:14.375Z,100
2023-03-27T01:09:02.400Z,100
2023-03-27T01:11:50.710Z,100
2023-03-27T01:14:52.203Z,100
2023-03-27T01:17:51.918Z,100
2023-03-27T01:20:54.542Z,100
2023-03-27T01:24:13.395Z,100
2023-03-27T01:27:38.601Z,100
2023-03-27T01:30:49.171Z,100
2023-03-27T01:33:44.516Z,100
2023-03-27T01:36:48.919Z,100
2023-03-27T01:39:56.585Z,100
2023-03-27T01:42:58.550Z,100
2023-03-27T01:45:52.797Z,100
2023-03-27T01:48:48.401Z,100
2023-03-27T01:51:43.015Z,100
2023-03-27T01:54:35.733Z,100
2023-03-27T01:57:26.654Z,100
2023-03-27T02:00:19.576Z,100
2023-03-27T02:03:11.562Z,100
2023-03-27T02:06:03.712Z,100
2023-03-27T02:08:57.282Z,100
2023-03-27T02:11:49.644Z,100
2023-03-27T02:14:43.670Z,100
2023-03-27T02:17:36.392Z,100
2023-03-27T02:20:29.394Z,100
2023-03-27T02:23:17.816Z,100
2023-03-27T02:26:07.531Z,100
2023-03-27T02:28:58.471Z,100
2023-03-27T02:31:59.273Z,100
2023-03-27T02:35:00.016Z,100
2023-03-27T02:37:57.683Z,100
2023-03-27T02:40:58.373Z,100
2023-03-27T02:43:54.484Z,100
2023-03-27T02:46:50.955Z,100
2023-03-27T02:49:44.754Z,100
2023-03-27T02:52:38.406Z,100
2023-03-27T02:55:30.156Z,100
2023-03-27T02:58:29.320Z,100
2023-03-27T03:01:22.956Z,100
2023-03-27T03:04:12.113Z,100
2023-03-27T03:07:04.534Z,100
2023-03-27T03:09:53.002Z,100
2023-03-27T03:12:41.939Z,100
2023-03-27T03:15:29.466Z,100
2023-03-27T03:18:17.007Z,100
2023-03-27T03:21:04.671Z,100
2023-03-27T03:23:58.090Z,100
2023-03-27T03:26:46.588Z,100
2023-03-27T03:29:34.881Z,100
2023-03-27T03:32:22.350Z,100
2023-03-27T03:35:11.053Z,100
2023-03-27T03:37:59.440Z,100
2023-03-27T03:40:48.429Z,100
2023-03-27T03:43:38.522Z,100
2023-03-27T03:46:26.111Z,100
2023-03-27T03:49:13.685Z,100
2023-03-27T03:52:04.311Z,100
2023-03-27T03:54:53.137Z,100
2023-03-27T03:57:41.782Z,100
2023-03-27T04:00:32.091Z,100
2023-03-27T04:03:22.891Z,100
2023-03-27T04:06:11.718Z,100
2023-03-27T04:09:02.210Z,100
2023-03-27T04:11:50.444Z,100
2023-03-27T04:14:39.817Z,100
2023-03-27T04:17:27.555Z,100
2023-03-27T04:20:17.849Z,100
2023-03-27T04:23:05.598Z,100
2023-03-27T04:25:55.064Z,100
2023-03-27T04:28:44.608Z,100
2023-03-27T04:31:36.318Z,100
2023-03-27T04:34:23.873Z,100
2023-03-27T04:37:11.621Z,100
2023-03-27T04:39:59.604Z,100
2023-03-27T04:42:49.651Z,100
2023-03-27T04:45:40.484Z,100
2023-03-27T04:48:29.452Z,100
2023-03-27T04:51:16.990Z,100
2023-03-27T04:54:04.729Z,100
2023-03-27T04:56:53.287Z,100
2023-03-27T04:59:42.061Z,100
2023-03-27T05:02:29.705Z,100
2023-03-27T05:05:18.192Z,100
2023-03-27T05:08:05.998Z,100
2023-03-27T05:10:53.945Z,100
2023-03-27T05:13:42.508Z,100
2023-03-27T05:16:32.322Z,100
2023-03-27T05:19:20.426Z,100
2023-03-27T05:22:08.699Z,100
2023-03-27T05:24:57.265Z,100
2023-03-27T05:27:44.833Z,100
2023-03-27T05:30:33.848Z,100
2023-03-27T05:33:21.784Z,100
2023-03-27T05:36:09.616Z,99.1
2023-03-27T05:38:57.358Z,99
2023-03-27T05:41:44.847Z,100
2023-03-27T05:44:32.642Z,98.8
2023-03-27T05:47:20.120Z,97.2
2023-03-27T05:50:07.650Z,95.6
2023-03-27T05:52:55.757Z,96.2
2023-03-27T05:55:45.775Z,95.4
2023-03-27T05:58:33.724Z,95.8
2023-03-27T06:01:21.984Z,95.8
2023-03-27T06:04:11.520Z,90.3
2023-03-27T06:07:00.534Z,89.4
2023-03-27T06:09:48.315Z,90
2023-03-27T06:12:36.202Z,87.4
2023-03-27T06:15:24.043Z,88.4
2023-03-27T06:18:13.799Z,85.7
2023-03-27T06:21:01.432Z,86.2
2023-03-27T06:23:50.305Z,86.2
2023-03-27T06:26:40.793Z,86.1
2023-03-27T06:29:28.274Z,86.4
2023-03-27T06:32:15.873Z,87.1
2023-03-27T06:35:03.485Z,87.4
2023-03-27T06:37:53.156Z,84.6
2023-03-27T06:40:43.708Z,84.7
2023-03-27T06:43:32.231Z,82.8
2023-03-27T06:46:19.885Z,80.8
2023-03-27T06:49:21.182Z,81.2
2023-03-27T06:52:08.842Z,81.2
2023-03-27T06:54:56.592Z,81.4
2023-03-27T06:57:44.277Z,82.3
2023-03-27T07:00:33.994Z,79.9
2023-03-27T07:03:23.724Z,78.4
2023-03-27T07:06:11.758Z,80
2023-03-27T07:09:00.894Z,77.9
2023-03-27T07:11:48.528Z,82
2023-03-27T07:14:36.692Z,80.4
2023-03-27T07:17:25.350Z,82.6
2023-03-27T07:20:16.052Z,83.3
2023-03-27T07:23:04.228Z,80.7
2023-03-27T07:25:51.809Z,80.3
2023-03-27T07:28:43.475Z,81.1
2023-03-27T07:31:51.075Z,80.8
2023-03-27T07:34:45.224Z,81.3
2023-03-27T07:37:33.887Z,81.2
2023-03-27T07:40:26.580Z,81.2
2023-03-27T07:43:21.526Z,80.1
2023-03-27T07:46:09.124Z,79.7
2023-03-27T07:48:57.088Z,81
2023-03-27T07:51:45.908Z,81.7
2023-03-27T07:54:33.414Z,80.3
2023-03-27T07:57:21.329Z,82.5
2023-03-27T08:00:09.102Z,81.7
2023-03-27T08:02:59.941Z,80.4
2023-03-27T08:05:51.887Z,81.6
2023-03-27T08:08:42.580Z,82.5
2023-03-27T08:11:31.189Z,78.9
2023-03-27T08:14:21.020Z,78.5
2023-03-27T08:17:16.128Z,78.2
2023-03-27T08:20:04.827Z,74.6
2023-03-27T08:22:53.959Z,74
2023-03-27T08:25:45.289Z,75.9
2023-03-27T08:28:35.041Z,75.7
2023-03-27T08:31:23.559Z,75.3
2023-03-27T08:34:15.116Z,73.9
2023-03-27T08:37:02.598Z,72.4
2023-03-27T08:39:50.262Z,69.5
2023-03-27T08:42:43.521Z,67
2023-03-27T08:45:35.182Z,68.1
2023-03-27T08:48:30.493Z,62
2023-03-27T08:51:24.193Z,65.9
2023-03-27T08:54:16.891Z,65.3
2023-03-27T08:57:08.038Z,63.3
2023-03-27T09:00:04.180Z,60.5
2023-03-27T09:02:59.984Z,62
2023-03-27T09:06:00.822Z,61.1
2023-03-27T09:08:54.554Z,61.4
2023-03-27T09:11:51.897Z,63.6
2023-03-27T09:14:51.223Z,63.8
2023-03-27T09:17:43.514Z,61.4
2023-03-27T09:20:34.935Z,60.9
2023-03-27T09:23:27.503Z,62.2
2023-03-27T09:26:22.805Z,61.7
2023-03-27T09:29:20.339Z,62.4
2023-03-27T09:32:11.381Z,61.6
2023-03-27T09:35:01.752Z,62.4
2023-03-27T09:37:50.615Z,63.9
2023-03-27T09:40:48.344Z,63.8
2023-03-27T09:43:43.069Z,64.8
2023-03-27T09:46:38.846Z,64.9
2023-03-27T09:49:31.194Z,61.8
2023-03-27T09:52:20.449Z,64.6
2023-03-27T09:55:23.402Z,64.3
2023-03-27T09:58:15.597Z,64
2023-03-27T10:01:14.561Z,65.5
2023-03-27T10:04:12.297Z,65.5
2023-03-27T10:07:03.234Z,63.1
2023-03-27T10:09:54.738Z,63.9
2023-03-27T10:12:56.595Z,64.9
2023-03-27T10:15:47.101Z,64.7
2023-03-27T10:18:34.638Z,66
2023-03-27T10:21:28.394Z,66.8
2023-03-27T10:24:19.348Z,67.7
2023-03-27T10:27:15.525Z,66.3
2023-03-27T10:30:08.615Z,65.9
2023-03-27T10:33:15.354Z,66.1
2023-03-27T10:36:15.598Z,65.6
2023-03-27T10:39:05.268Z,64.9
2023-03-27T10:41:59.222Z,63.9
2023-03-27T10:44:51.873Z,64.5
2023-03-27T10:47:42.131Z,65.2
2023-03-27T10:50:34.225Z,62.2
2023-03-27T10:53:37.914Z,61.9
2023-03-27T10:56:36.694Z,64.1
2023-03-27T10:59:41.970Z,64
2023-03-27T11:02:36.369Z,65.6
2023-03-27T11:05:31.311Z,63.7
2023-03-27T11:08:23.508Z,62.7
2023-03-27T11:11:17.121Z,63.6
2023-03-27T11:14:10.316Z,61.3
2023-03-27T11:17:05.527Z,63.2
2023-03-27T11:19:57.859Z,64.5
2023-03-27T11:22:53.139Z,64.9
2023-03-27T11:25:45.333Z,64.8
2023-03-27T11:28:36.683Z,63.9
2023-03-27T11:31:28.290Z,63.5
2023-03-27T11:34:29.390Z,61.5
2023-03-27T11:37:21.034Z,63
2023-03-27T11:40:14.211Z,61.5
2023-03-27T11:43:08.836Z,64.3
2023-03-27T11:45:58.584Z,63.5
2023-03-27T11:49:03.095Z,66.7
2023-03-27T11:52:10.059Z,68.1
2023-03-27T11:55:14.333Z,66.3
2023-03-27T11:58:11.579Z,63.7
2023-03-27T12:01:11.570Z,64.6
2023-03-27T12:04:07.118Z,66.2
2023-03-27T12:07:12.369Z,62
2023-03-27T12:10:12.574Z,61.6
2023-03-27T12:13:13.437Z,59.7
2023-03-27T12:16:43.677Z,61.2
2023-03-27T12:19:47.228Z,60.4
2023-03-27T12:22:51.585Z,62.8
2023-03-27T12:25:48.675Z,64
2023-03-27T12:28:55.477Z,65.2
2023-03-27T12:31:58.894Z,66.7
2023-03-27T12:35:04.000Z,69.4
2023-03-27T12:37:56.899Z,70.7
2023-03-27T12:40:47.760Z,72.7
2023-03-27T12:43:47.408Z,72.5
2023-03-27T12:46:40.885Z,73
2023-03-27T12:49:40.615Z,73.5
2023-03-27T12:52:42.713Z,73.6
2023-03-27T12:55:30.705Z,74.1
2023-03-27T12:58:21.869Z,66.9
2023-03-27T13:01:21.459Z,67.6
2023-03-27T13:04:30.559Z,64.6
2023-03-27T13:07:35.512Z,65.4
2023-03-27T13:10:35.543Z,65
2023-03-27T13:13:36.215Z,62.2
2023-03-27T13:16:50.506Z,62.8
2023-03-27T13:19:50.543Z,66
2023-03-27T13:22:52.728Z,61.4
2023-03-27T13:26:08.566Z,59.3
2023-03-27T13:29:09.617Z,60.9
2023-03-27T13:32:03.257Z,55.1
2023-03-27T13:35:15.578Z,47.7
2023-03-27T13:38:17.502Z,51.2
2023-03-27T13:41:33.743Z,44.4
2023-03-27T13:44:40.393Z,46.1
2023-03-27T13:47:35.848Z,44.5
2023-03-27T13:50:45.508Z,44.7
2023-03-27T13:53:53.956Z,45.3
2023-03-27T13:57:22.776Z,45.5
2023-03-27T14:00:28.519Z,42.5
2023-03-27T14:03:33.671Z,42.2
2023-03-27T14:06:47.877Z,43.9
2023-03-27T14:10:00.876Z,41.7
2023-03-27T14:13:11.338Z,39.6
2023-03-27T14:16:13.668Z,42.7
2023-03-27T14:19:26.139Z,41.6
2023-03-27T14:22:36.781Z,43
2023-03-27T14:25:32.484Z,40.3
2023-03-27T14:31:08.805Z,38
2023-03-27T14:34:03.386Z,38.2
2023-03-27T14:37:01.179Z,37
2023-03-27T14:40:08.904Z,36
2023-03-27T14:45:53.193Z,35.8
2023-03-27T14:48:45.034Z,36.1
2023-03-27T14:51:37.885Z,36.7
2023-03-27T14:54:26.731Z,35.4
2023-03-27T14:57:15.627Z,36.3
2023-03-27T15:00:05.393Z,35.8
2023-03-27T15:03:02.037Z,35.9
2023-03-27T15:05:58.431Z,36.8
2023-03-27T15:08:49.254Z,37.8
2023-03-27T15:11:40.338Z,35.4
2023-03-27T15:14:33.115Z,36.9
2023-03-27T15:17:23.010Z,36.7
2023-03-27T15:20:12.831Z,38.2
2023-03-27T15:23:04.883Z,39.2
2023-03-27T15:26:03.748Z,39.1
2023-03-27T15:28:59.785Z,39.3
2023-03-27T15:31:58.499Z,40.1
2023-03-27T15:34:53.440Z,40.9
2023-03-27T15:37:43.864Z,39.2
2023-03-27T15:40:32.468Z,40.2
2023-03-27T15:43:21.780Z,40
2023-03-27T15:46:12.453Z,40.3
2023-03-27T15:49:02.772Z,40.4
2023-03-27T15:52:10.558Z,41.7
2023-03-27T15:55:18.779Z,42.6
2023-03-27T15:58:25.785Z,41.3
2023-03-27T16:01:25.637Z,41.9
2023-03-27T16:04:17.035Z,39.2
2023-03-27T16:07:07.170Z,39.2
2023-03-27T16:10:03.058Z,39.3
2023-03-27T16:12:53.797Z,41.4
2023-03-27T16:15:45.467Z,41.9
2023-03-27T16:18:42.534Z,41.1
2023-03-27T16:21:33.734Z,40.3
2023-03-27T16:24:21.797Z,40.6
2023-03-27T16:27:09.278Z,40.6
2023-03-27T16:29:57.706Z,39.5
2023-03-27T16:32:46.006Z,40.8
2023-03-27T16:35:33.713Z,38.9
2023-03-27T16:38:21.440Z,39.5
2023-03-27T16:41:09.094Z,41.5
2023-03-27T16:43:58.800Z,40.3
2023-03-27T16:46:46.674Z,41.6
2023-03-27T16:49:35.156Z,41.9
2023-03-27T16:52:22.708Z,42.9
2023-03-27T16:55:10.583Z,42.5
2023-03-27T16:57:59.506Z,43.6
2023-03-27T17:00:47.885Z,43.9
2023-03-27T17:03:36.044Z,44.6
2023-03-27T17:06:24.161Z,44.7
2023-03-27T17:09:11.712Z,45.4
2023-03-27T17:12:00.628Z,46.4
2023-03-27T17:14:48.815Z,47.2
2023-03-27T17:17:37.190Z,47.3
2023-03-27T17:20:24.872Z,48.2
2023-03-27T17:23:12.850Z,49.1
2023-03-27T17:26:02.212Z,50.5
2023-03-27T17:28:50.543Z,51.7
2023-03-27T17:31:38.539Z,52.6
2023-03-27T17:34:26.239Z,54.9
2023-03-27T17:37:19.695Z,54.8
2023-03-27T17:40:07.994Z,53.8
2023-03-27T17:42:57.163Z,56.9
2023-03-27T17:45:45.122Z,56.2
2023-03-27T17:48:33.748Z,58.8
2023-03-27T17:51:21.983Z,60.5
2023-03-27T17:54:09.569Z,61.7
2023-03-27T17:56:57.335Z,63.4
2023-03-27T17:59:45.051Z,64
2023-03-27T18:02:32.779Z,65.5
2023-03-27T18:05:21.362Z,62.5
2023-03-27T18:08:09.406Z,67.1
2023-03-27T18:10:59.143Z,64.7
2023-03-27T18:13:46.774Z,66.8
2023-03-27T18:16:37.583Z,69.6
2023-03-27T18:19:25.371Z,69.3
2023-03-27T18:22:13.469Z,67.5
2023-03-27T18:25:02.186Z,69.3
2023-03-27T18:27:51.405Z,70.8
2023-03-27T18:30:38.979Z,71.3
2023-03-27T18:33:28.867Z,73.1
2023-03-27T18:36:17.245Z,72.4
2023-03-27T18:39:05.045Z,74.7
2023-03-27T18:41:52.570Z,73.7
2023-03-27T18:44:43.173Z,75.7
2023-03-27T18:47:31.074Z,75.5
2023-03-27T18:50:19.988Z,77.2
2023-03-27T18:53:07.599Z,78.2
2023-03-27T18:55:55.579Z,74.5
2023-03-27T18:58:43.714Z,75
2023-03-27T19:01:31.911Z,75.9
2023-03-27T19:04:19.487Z,77
2023-03-27T19:07:08.736Z,77.4
2023-03-27T19:09:57.213Z,76.2
2023-03-27T19:12:45.117Z,76.6
2023-03-27T19:15:34.443Z,78.2
2023-03-27T19:18:22.178Z,78.3
2023-03-27T19:21:13.140Z,78
2023-03-27T19:24:02.013Z,79.9
2023-03-27T19:26:51.942Z,79.9
2023-03-27T19:29:39.429Z,77.5
2023-03-27T19:32:27.041Z,77
2023-03-27T19:35:14.935Z,77.5
2023-03-27T19:38:04.646Z,79.1
2023-03-27T19:40:52.261Z,78.2
2023-03-27T19:43:40.516Z,78.6
2023-03-27T19:46:28.632Z,77.4
2023-03-27T19:49:16.859Z,76.4
2023-03-27T19:52:05.518Z,76.3
2023-03-27T19:54:53.755Z,76.6
2023-03-27T19:57:41.282Z,75.8
2023-03-27T20:00:31.282Z,75.8
2023-03-27T20:03:19.822Z,76.5
2023-03-27T20:06:10.720Z,75.5
2023-03-27T20:09:04.119Z,75.3
2023-03-27T20:11:52.337Z,74.5
2023-03-27T20:14:40.442Z,75.4
2023-03-27T20:17:28.663Z,71.9
2023-03-27T20:20:16.652Z,70.9
2023-03-27T20:23:04.549Z,70.3
2023-03-27T20:25:52.420Z,69.8
2023-03-27T20:28:41.017Z,69.7
2023-03-27T20:31:28.656Z,69
2023-03-27T20:34:16.528Z,68.1
2023-03-27T20:37:07.005Z,63.9
2023-03-27T20:39:56.354Z,65.9
2023-03-27T20:42:46.370Z,66.8
2023-03-27T20:45:38.815Z,68.2
2023-03-27T20:48:27.850Z,68
2023-03-27T20:51:25.208Z,68.5
2023-03-27T20:54:13.697Z,69.6
2023-03-27T20:57:02.473Z,68.5
2023-03-27T20:59:50.883Z,69.7
2023-03-27T21:02:39.081Z,68.8
2023-03-27T21:05:26.838Z,67.6
2023-03-27T21:08:14.772Z,66.9
2023-03-27T21:11:03.480Z,66.5
2023-03-27T21:13:52.427Z,65.8
2023-03-27T21:16:40.307Z,66.6
2023-03-27T21:19:28.180Z,67.5
2023-03-27T21:22:16.281Z,67.1
2023-03-27T21:25:04.307Z,66.6
2023-03-27T21:27:52.898Z,67.2
2023-03-27T21:30:46.599Z,68.3
2023-03-27T21:33:35.897Z,68.6
2023-03-27T21:36:24.868Z,69
2023-03-27T21:39:13.848Z,69.8
2023-03-27T21:42:02.474Z,70.4
2023-03-27T21:44:53.930Z,71.3
2023-03-27T21:47:47.875Z,72.2
2023-03-27T21:50:37.381Z,73
2023-03-27T21:53:24.996Z,72.9
2023-03-27T21:56:13.692Z,73.6
2023-03-27T21:59:02.360Z,74.9
2023-03-27T22:01:50.158Z,76.4
2023-03-27T22:04:37.863Z,76.5
2023-03-27T22:07:25.545Z,79
2023-03-27T22:10:14.103Z,80.6
2023-03-27T22:13:03.346Z,82.4
2023-03-27T22:15:51.193Z,83.1
2023-03-27T22:18:39.278Z,84.7
2023-03-27T22:21:27.296Z,87.4
2023-03-27T22:24:15.931Z,87.6
2023-03-27T22:27:04.674Z,88.8
2023-03-27T22:29:52.280Z,89.8
2023-03-27T22:32:40.003Z,92.1
2023-03-27T22:35:28.225Z,92.2
2023-03-27T22:38:16.394Z,91.9
2023-03-27T22:41:04.530Z,94
2023-03-27T22:43:54.141Z,94
2023-03-27T22:46:44.576Z,95
2023-03-27T22:49:32.172Z,96.1
2023-03-27T22:52:20.790Z,96.6
2023-03-27T22:55:08.448Z,96.6
2023-03-27T22:57:55.935Z,98.4
2023-03-27T23:00:43.538Z,98.8
2023-03-27T23:03:32.362Z,100
2023-03-27T23:06:20.175Z,99
2023-03-27T23:09:09.240Z,100
2023-03-27T23:11:56.705Z,100
2023-03-27T23:14:44.359Z,100
2023-03-27T23:17:31.824Z,100
2023-03-27T23:20:19.443Z,100
2023-03-27T23:23:07.266Z,100
2023-03-27T23:25:54.850Z,100
2023-03-27T23:28:42.835Z,100
2023-03-27T23:31:30.676Z,100
2023-03-27T23:34:18.254Z,100
2023-03-27T23:37:05.886Z,100
2023-03-27T23:39:53.379Z,100
2023-03-27T23:42:40.851Z,100
2023-03-27T23:45:28.332Z,100
2023-03-27T23:48:16.110Z,100
2023-03-27T23:51:04.964Z,100
2023-03-27T23:53:54.007Z,100
2023-03-27T23:56:41.600Z,100
2023-03-27T23:59:29.262Z,100
